createdAt,value
2023-03-06T00:02:54.851Z,3.55
2023-03-06T00:05:57.840Z,3.85
2023-03-06T00:08:59.646Z,2.47
2023-03-06T00:12:01.383Z,4.38
2023-03-06T00:15:05.544Z,2.65
2023-03-06T00:18:07.984Z,2.80
2023-03-06T00:21:09.712Z,4.43
2023-03-06T00:24:11.349Z,5.50
2023-03-06T00:27:12.983Z,4.38
2023-03-06T00:30:18.786Z,3.08
2023-03-06T00:33:20.631Z,7.55
2023-03-06T00:36:22.293Z,4.90
2023-03-06T00:39:24.478Z,3.40
2023-03-06T00:42:28.368Z,3.58
2023-03-06T00:45:30.150Z,5.40
2023-03-06T00:48:33.575Z,4.70
2023-03-06T00:51:35.504Z,2.17
2023-03-06T00:54:37.570Z,6.15
2023-03-06T00:57:39.336Z,3.90
2023-03-06T01:00:41.077Z,6.32
2023-03-06T01:03:42.883Z,4.75
2023-03-06T01:06:44.736Z,3.13
2023-03-06T01:09:46.582Z,5.53
2023-03-06T01:12:49.872Z,4.03
2023-03-06T01:15:53.338Z,4.13
2023-03-06T01:18:56.766Z,4.80
2023-03-06T01:21:58.509Z,5.03
2023-03-06T01:25:00.202Z,4.90
2023-03-06T01:28:01.849Z,5.20
2023-03-06T01:31:04.362Z,3.00
2023-03-06T01:34:06.372Z,4.97
2023-03-06T01:37:08.175Z,5.10
2023-03-06T01:40:12.409Z,4.18
2023-03-06T01:43:30.439Z,5.95
2023-03-06T01:46:43.211Z,5.60
2023-03-06T01:49:44.899Z,5.30
2023-03-06T01:52:59.912Z,5.78
2023-03-06T01:56:01.775Z,4.93
2023-03-06T01:59:04.793Z,4.28
2023-03-06T02:02:10.150Z,4.38
2023-03-06T02:05:12.364Z,3.15
2023-03-06T02:08:17.589Z,4.95
2023-03-06T02:11:25.756Z,5.95
2023-03-06T02:14:29.046Z,5.10
2023-03-06T02:17:30.685Z,4.55
2023-03-06T02:20:40.691Z,3.92
2023-03-06T02:23:59.874Z,4.85
2023-03-06T02:27:04.248Z,3.90
2023-03-06T02:30:10.869Z,4.47
2023-03-06T02:33:22.146Z,4.35
2023-03-06T02:36:23.902Z,4.80
2023-03-06T02:39:28.122Z,5.93
2023-03-06T02:42:30.341Z,7.35
2023-03-06T02:45:45.322Z,5.20
2023-03-06T02:48:47.399Z,5.05
2023-03-06T02:51:50.194Z,4.40
2023-03-06T02:54:52.161Z,4.78
2023-03-06T02:57:54.129Z,4.35
2023-03-06T03:00:56.002Z,4.43
2023-03-06T03:03:58.239Z,9.43
2023-03-06T03:07:00.420Z,6.53
2023-03-06T03:10:02.658Z,6.22
2023-03-06T03:13:04.416Z,6.03
2023-03-06T03:16:14.092Z,3.80
2023-03-06T03:19:16.053Z,4.93
2023-03-06T03:22:18.590Z,4.82
2023-03-06T03:25:21.710Z,4.60
2023-03-06T03:28:23.417Z,6.18
2023-03-06T03:31:26.169Z,5.97
2023-03-06T03:34:28.393Z,4.03
2023-03-06T03:37:30.828Z,3.42
2023-03-06T03:40:33.300Z,3.35
2023-03-06T03:43:35.192Z,3.20
2023-03-06T03:46:38.116Z,4.25
2023-03-06T03:49:44.794Z,4.53
2023-03-06T03:52:46.954Z,5.95
2023-03-06T03:55:49.209Z,4.20
2023-03-06T03:58:53.808Z,3.85
2023-03-06T04:01:56.696Z,4.97
2023-03-06T04:04:59.977Z,5.72
2023-03-06T04:08:03.488Z,6.18
2023-03-06T04:11:06.681Z,6.63
2023-03-06T04:14:09.865Z,4.70
2023-03-06T04:17:12.304Z,3.75
2023-03-06T04:20:14.766Z,5.60
2023-03-06T04:23:18.609Z,6.35
2023-03-06T04:26:21.145Z,4.03
2023-03-06T04:29:23.963Z,3.90
2023-03-06T04:32:26.061Z,4.97
2023-03-06T04:35:28.454Z,7.95
2023-03-06T04:38:35.816Z,6.40
2023-03-06T04:41:40.982Z,7.38
2023-03-06T04:44:43.349Z,4.95
2023-03-06T04:47:45.092Z,4.55
2023-03-06T04:50:47.267Z,8.07
2023-03-06T04:53:49.058Z,6.78
2023-03-06T04:56:51.271Z,6.22
2023-03-06T04:59:52.854Z,5.85
2023-03-06T05:02:54.656Z,9.07
2023-03-06T05:05:56.270Z,5.57
2023-03-06T05:08:58.389Z,8.15
2023-03-06T05:12:00.094Z,6.05
2023-03-06T05:15:01.896Z,7.82
2023-03-06T05:18:04.397Z,8.07
2023-03-06T05:21:06.695Z,7.18
2023-03-06T05:24:09.538Z,8.90
2023-03-06T05:27:11.749Z,9.32
2023-03-06T05:30:15.173Z,8.70
2023-03-06T05:33:16.975Z,6.47
2023-03-06T05:36:18.613Z,7.75
2023-03-06T05:39:21.297Z,11.15
2023-03-06T05:42:23.272Z,9.63
2023-03-06T05:45:24.905Z,9.82
2023-03-06T05:48:26.557Z,8.48
2023-03-06T05:51:28.213Z,9.75
2023-03-06T05:54:31.536Z,11.07
2023-03-06T05:57:33.675Z,8.93
2023-03-06T06:00:35.347Z,13.02
2023-03-06T06:03:37.531Z,10.63
2023-03-06T06:06:39.085Z,10.25
2023-03-06T06:09:41.324Z,9.65
2023-03-06T06:12:43.039Z,9.85
2023-03-06T06:15:44.984Z,9.18
2023-03-06T06:18:46.724Z,9.48
2023-03-06T06:21:51.896Z,10.52
2023-03-06T06:24:53.855Z,10.55
2023-03-06T06:27:56.748Z,13.38
2023-03-06T06:30:58.316Z,9.50
2023-03-06T06:34:00.200Z,9.70
2023-03-06T06:37:01.955Z,11.30
2023-03-06T06:40:04.636Z,10.05
2023-03-06T06:43:06.238Z,10.05
2023-03-06T06:46:38.775Z,8.57
2023-03-06T06:49:29.874Z,11.48
2023-03-06T06:52:31.633Z,12.02
2023-03-06T06:55:33.528Z,12.60
2023-03-06T06:58:35.257Z,8.98
2023-03-06T07:01:37.131Z,12.15
2023-03-06T07:04:49.347Z,11.30
2023-03-06T07:07:58.343Z,14.30
2023-03-06T07:11:07.530Z,11.95
2023-03-06T07:14:09.262Z,18.75
2023-03-06T07:17:10.968Z,16.48
2023-03-06T07:20:12.868Z,15.05
2023-03-06T07:23:14.808Z,14.57
2023-03-06T07:26:17.108Z,13.93
2023-03-06T07:29:18.654Z,14.00
2023-03-06T07:32:21.523Z,17.65
2023-03-06T07:35:24.122Z,14.52
2023-03-06T07:38:26.135Z,13.63
2023-03-06T07:41:27.893Z,16.98
2023-03-06T07:44:29.579Z,13.75
2023-03-06T07:47:31.223Z,13.20
2023-03-06T07:50:33.238Z,15.23
2023-03-06T07:53:35.738Z,14.00
2023-03-06T07:56:37.675Z,12.55
2023-03-06T07:59:39.326Z,12.82
2023-03-06T08:02:42.194Z,12.60
2023-03-06T08:05:59.581Z,12.75
2023-03-06T08:09:01.893Z,12.40
2023-03-06T08:12:04.015Z,11.77
2023-03-06T08:15:06.438Z,11.57
2023-03-06T08:18:08.794Z,9.73
2023-03-06T08:21:13.566Z,15.32
2023-03-06T08:24:17.138Z,12.15
2023-03-06T08:27:18.758Z,10.30
2023-03-06T08:30:21.615Z,12.05
2023-03-06T08:33:23.831Z,10.57
2023-03-06T08:36:26.166Z,12.10
2023-03-06T08:39:29.086Z,14.82
2023-03-06T08:42:31.590Z,11.70
2023-03-06T08:45:33.445Z,13.85
2023-03-06T08:48:35.424Z,14.13
2023-03-06T08:51:37.179Z,12.77
2023-03-06T08:54:39.817Z,14.10
2023-03-06T08:57:41.554Z,11.55
2023-03-06T09:00:43.931Z,11.07
2023-03-06T09:03:46.160Z,13.52
2023-03-06T09:06:48.782Z,10.60
2023-03-06T09:09:51.766Z,12.20
2023-03-06T09:12:55.370Z,8.93
2023-03-06T09:15:57.527Z,9.25
2023-03-06T09:18:59.393Z,8.90
2023-03-06T09:22:01.122Z,7.18
2023-03-06T09:25:04.064Z,7.40
2023-03-06T09:28:11.734Z,6.95
2023-03-06T09:31:19.776Z,6.35
2023-03-06T09:34:21.659Z,5.28
2023-03-06T09:37:23.529Z,5.10
2023-03-06T09:40:39.748Z,3.85
2023-03-06T09:43:47.037Z,7.35
2023-03-06T09:47:22.520Z,3.55
2023-03-06T09:50:48.775Z,2.05
2023-03-06T09:54:13.025Z,3.47
2023-03-06T09:57:28.151Z,2.20
2023-03-06T10:00:51.319Z,2.50
2023-03-06T10:04:36.374Z,2.60
2023-03-06T10:07:49.567Z,2.28
2023-03-06T10:11:17.285Z,2.53
2023-03-06T10:14:48.451Z,2.20
2023-03-06T10:17:55.463Z,2.55
2023-03-06T10:21:18.713Z,3.40
2023-03-06T10:24:32.079Z,1.95
2023-03-06T10:27:48.423Z,4.50
2023-03-06T10:30:53.274Z,2.95
2023-03-06T10:34:11.462Z,1.80
2023-03-06T10:37:19.701Z,1.13
2023-03-06T10:40:28.200Z,2.95
2023-03-06T10:43:36.265Z,1.20
2023-03-06T10:46:49.115Z,1.48
2023-03-06T10:50:00.397Z,1.75
2023-03-06T10:53:20.532Z,3.25
2023-03-06T10:56:36.936Z,2.03
2023-03-06T10:59:52.283Z,1.92
2023-03-06T11:03:26.577Z,2.90
2023-03-06T11:06:36.362Z,2.72
2023-03-06T11:09:38.797Z,2.45
2023-03-06T11:13:30.741Z,2.15
2023-03-06T11:16:32.416Z,2.28
2023-03-06T11:19:35.715Z,1.40
2023-03-06T11:22:45.980Z,3.70
2023-03-06T11:26:03.813Z,2.47
2023-03-06T11:29:17.593Z,3.38
2023-03-06T11:32:48.235Z,1.30
2023-03-06T11:35:57.906Z,1.58
2023-03-06T11:39:02.114Z,0.60
2023-03-06T11:42:14.075Z,1.55
2023-03-06T11:45:46.345Z,2.42
2023-03-06T11:49:12.303Z,3.30
2023-03-06T11:52:48.824Z,5.50
2023-03-06T11:56:18.490Z,5.97
2023-03-06T11:59:38.283Z,4.97
2023-03-06T12:03:11.273Z,3.63
2023-03-06T12:06:39.502Z,4.63
2023-03-06T12:09:59.401Z,7.90
2023-03-06T12:13:28.857Z,5.65
2023-03-06T12:17:11.277Z,4.03
2023-03-06T12:20:33.112Z,2.33
2023-03-06T12:24:03.569Z,1.60
2023-03-06T12:27:11.269Z,1.40
2023-03-06T12:30:33.633Z,1.77
2023-03-06T12:34:07.704Z,4.03
2023-03-06T12:37:09.908Z,2.45
2023-03-06T12:40:47.014Z,1.42
2023-03-06T12:44:16.708Z,1.10
2023-03-06T12:47:23.739Z,2.22
2023-03-06T12:50:25.485Z,2.00
2023-03-06T12:53:33.032Z,1.63
2023-03-06T12:56:35.690Z,2.25
2023-03-06T12:59:48.897Z,1.83
2023-03-06T13:03:04.485Z,2.35
2023-03-06T13:07:04.852Z,3.40
2023-03-06T13:10:28.276Z,1.50
2023-03-06T13:13:41.610Z,1.90
2023-03-06T13:16:43.377Z,1.30
2023-03-06T13:19:45.207Z,2.15
2023-03-06T13:22:48.052Z,0.90
2023-03-06T13:25:51.046Z,0.75
2023-03-06T13:28:56.380Z,0.73
2023-03-06T13:32:00.882Z,0.95
2023-03-06T13:35:22.776Z,3.50
2023-03-06T13:38:41.176Z,1.15
2023-03-06T13:41:58.227Z,0.68
2023-03-06T13:45:15.312Z,2.75
2023-03-06T13:48:43.002Z,1.38
2023-03-06T13:51:51.463Z,1.83
2023-03-06T13:55:03.366Z,1.30
2023-03-06T13:58:08.070Z,1.50
2023-03-06T14:01:16.091Z,1.27
2023-03-06T14:04:54.873Z,1.90
2023-03-06T14:08:13.759Z,1.77
2023-03-06T14:11:21.515Z,1.52
2023-03-06T14:14:47.965Z,2.08
2023-03-06T14:18:02.006Z,0.73
2023-03-06T14:21:06.188Z,1.13
2023-03-06T14:24:27.044Z,2.47
2023-03-06T14:27:40.083Z,2.63
2023-03-06T14:30:50.349Z,1.02
2023-03-06T14:34:09.084Z,2.25
2023-03-06T14:37:21.759Z,1.20
2023-03-06T14:40:34.286Z,2.38
2023-03-06T14:43:35.878Z,1.63
2023-03-06T14:46:37.773Z,2.35
2023-03-06T14:49:39.672Z,3.88
2023-03-06T14:52:41.622Z,1.83
2023-03-06T14:55:56.952Z,1.85
2023-03-06T14:59:02.443Z,2.85
2023-03-06T15:02:09.712Z,1.15
2023-03-06T15:05:36.358Z,2.25
2023-03-06T15:08:39.979Z,0.68
2023-03-06T15:11:56.466Z,3.30
2023-03-06T15:15:06.063Z,1.02
2023-03-06T15:18:30.143Z,1.85
2023-03-06T15:21:39.152Z,1.38
2023-03-06T15:24:40.968Z,1.65
2023-03-06T15:27:58.197Z,5.47
2023-03-06T15:31:24.502Z,1.48
2023-03-06T15:34:26.380Z,2.95
2023-03-06T15:37:28.940Z,1.85
2023-03-06T15:40:32.022Z,2.78
2023-03-06T15:43:40.484Z,3.55
2023-03-06T15:46:42.424Z,1.10
2023-03-06T15:49:44.725Z,2.58
2023-03-06T15:52:48.342Z,1.58
2023-03-06T15:55:52.137Z,2.22
2023-03-06T15:58:54.332Z,1.10
2023-03-06T16:01:56.086Z,2.05
2023-03-06T16:04:57.731Z,1.10
2023-03-06T16:07:59.390Z,2.05
2023-03-06T16:11:01.111Z,0.95
2023-03-06T16:14:02.997Z,2.80
2023-03-06T16:17:04.673Z,1.63
2023-03-06T16:20:09.142Z,3.10
2023-03-06T16:23:11.154Z,1.65
2023-03-06T16:26:39.830Z,1.90
2023-03-06T16:29:41.448Z,2.75
2023-03-06T16:32:45.047Z,3.13
2023-03-06T16:35:47.346Z,1.73
2023-03-06T16:38:50.942Z,3.45
2023-03-06T16:41:52.624Z,2.25
2023-03-06T16:44:54.385Z,2.47
2023-03-06T16:47:58.782Z,3.10
2023-03-06T16:51:01.580Z,2.50
2023-03-06T16:54:03.586Z,2.55
2023-03-06T16:57:06.665Z,2.63
2023-03-06T17:00:11.298Z,2.47
2023-03-06T17:03:13.423Z,2.42
2023-03-06T17:06:17.640Z,5.72
2023-03-06T17:09:19.240Z,2.42
2023-03-06T17:12:21.800Z,3.05
2023-03-06T17:15:25.013Z,2.20
2023-03-06T17:18:27.897Z,2.70
2023-03-06T17:21:30.420Z,2.88
2023-03-06T17:24:32.624Z,4.97
2023-03-06T17:27:35.413Z,3.08
2023-03-06T17:30:37.448Z,2.80
2023-03-06T17:33:39.110Z,4.05
2023-03-06T17:36:40.736Z,1.83
2023-03-06T17:39:44.932Z,3.70
2023-03-06T17:42:46.798Z,1.98
2023-03-06T17:45:48.640Z,2.95
2023-03-06T17:48:50.595Z,3.22
2023-03-06T17:51:53.076Z,2.28
2023-03-06T17:54:54.820Z,1.90
2023-03-06T17:57:56.424Z,2.10
2023-03-06T18:00:58.415Z,4.63
2023-03-06T18:04:02.412Z,3.65
2023-03-06T18:07:05.398Z,2.85
2023-03-06T18:10:07.466Z,3.17
2023-03-06T18:13:10.779Z,3.85
2023-03-06T18:16:14.781Z,2.40
2023-03-06T18:19:17.697Z,2.25
2023-03-06T18:22:19.546Z,3.30
2023-03-06T18:25:21.222Z,2.40
2023-03-06T18:28:26.034Z,3.70
2023-03-06T18:31:33.772Z,4.47
2023-03-06T18:34:36.553Z,3.22
2023-03-06T18:37:41.049Z,4.40
2023-03-06T18:40:43.120Z,5.55
2023-03-06T18:43:45.557Z,3.42
2023-03-06T18:46:47.215Z,3.30
2023-03-06T18:49:49.454Z,3.17
2023-03-06T18:52:51.007Z,7.75
2023-03-06T18:55:56.529Z,3.85
2023-03-06T18:59:05.865Z,3.60
2023-03-06T19:02:07.794Z,4.80
2023-03-06T19:05:09.792Z,4.57
2023-03-06T19:08:11.924Z,5.80
2023-03-06T19:11:17.030Z,4.05
2023-03-06T19:14:18.538Z,5.65
2023-03-06T19:17:20.440Z,4.22
2023-03-06T19:20:23.324Z,5.57
2023-03-06T19:23:25.176Z,4.32
2023-03-06T19:26:30.982Z,4.70
2023-03-06T19:29:33.475Z,5.38
2023-03-06T19:32:35.521Z,5.15
2023-03-06T19:35:37.695Z,5.03
2023-03-06T19:38:42.845Z,7.65
2023-03-06T19:41:46.630Z,5.20
2023-03-06T19:44:48.375Z,5.50
2023-03-06T19:47:51.163Z,4.90
2023-03-06T19:50:52.818Z,4.95
2023-03-06T19:53:54.586Z,7.95
2023-03-06T19:56:56.918Z,5.35
2023-03-06T19:59:59.246Z,5.97
2023-03-06T20:03:01.800Z,5.28
2023-03-06T20:06:06.985Z,5.05
2023-03-06T20:09:09.384Z,4.53
2023-03-06T20:12:11.220Z,4.53
2023-03-06T20:15:13.112Z,5.75
2023-03-06T20:18:15.464Z,6.90
2023-03-06T20:21:17.007Z,5.60
2023-03-06T20:24:19.137Z,5.90
2023-03-06T20:27:20.716Z,5.65
2023-03-06T20:30:26.358Z,7.57
2023-03-06T20:33:29.297Z,6.40
2023-03-06T20:36:37.329Z,6.97
2023-03-06T20:39:39.283Z,5.90
2023-03-06T20:42:40.820Z,7.57
2023-03-06T20:45:42.492Z,6.55
2023-03-06T20:48:49.339Z,6.80
2023-03-06T20:51:51.197Z,6.43
2023-03-06T20:54:52.829Z,8.57
2023-03-06T20:57:54.708Z,8.15
2023-03-06T21:00:57.450Z,8.68
2023-03-06T21:04:00.345Z,11.23
2023-03-06T21:07:02.117Z,8.07
2023-03-06T21:10:04.606Z,8.98
2023-03-06T21:13:06.722Z,8.80
2023-03-06T21:16:11.483Z,8.48
2023-03-06T21:19:13.478Z,9.38
2023-03-06T21:22:15.415Z,9.85
2023-03-06T21:25:17.259Z,12.15
2023-03-06T21:28:19.249Z,10.27
2023-03-06T21:31:22.151Z,10.63
2023-03-06T21:34:24.024Z,13.23
2023-03-06T21:37:25.947Z,16.38
2023-03-06T21:40:27.812Z,19.75
2023-03-06T21:43:30.221Z,19.70
2023-03-06T21:46:33.126Z,24.15
2023-03-06T21:49:34.685Z,23.45
2023-03-06T21:52:37.423Z,22.15
2023-03-06T21:55:42.388Z,22.63
2023-03-06T21:58:45.006Z,24.27
2023-03-06T22:01:47.574Z,26.60
2023-03-06T22:04:51.293Z,21.27
2023-03-06T22:07:53.460Z,26.15
2023-03-06T22:10:55.343Z,21.80
2023-03-06T22:13:58.101Z,25.00
2023-03-06T22:17:00.493Z,25.00
2023-03-06T22:20:02.544Z,23.65
2023-03-06T22:23:04.120Z,25.15
2023-03-06T22:26:13.536Z,28.95
2023-03-06T22:29:15.416Z,25.00
2023-03-06T22:32:17.111Z,25.63
2023-03-06T22:35:18.770Z,25.95
2023-03-06T22:38:22.863Z,30.92
2023-03-06T22:41:27.001Z,27.98
2023-03-06T22:44:28.612Z,26.38
2023-03-06T22:47:30.180Z,27.25
2023-03-06T22:50:33.482Z,25.73
2023-03-06T22:53:35.688Z,24.80
2023-03-06T22:56:37.600Z,29.60
2023-03-06T22:59:39.284Z,29.75
2023-03-06T23:02:40.957Z,28.52
2023-03-06T23:05:43.378Z,28.27
2023-03-06T23:08:49.449Z,31.63
2023-03-06T23:11:52.065Z,30.00
2023-03-06T23:15:12.355Z,31.90
2023-03-06T23:18:35.167Z,26.57
2023-03-06T23:21:55.264Z,28.17
2023-03-06T23:25:17.653Z,27.52
2023-03-06T23:28:19.581Z,27.88
2023-03-06T23:31:27.600Z,28.13
2023-03-06T23:34:29.374Z,26.58
2023-03-06T23:37:31.178Z,29.70
2023-03-06T23:40:33.541Z,27.42
2023-03-06T23:43:36.412Z,27.10
2023-03-06T23:46:38.300Z,26.70
2023-03-06T23:49:40.426Z,25.13
2023-03-06T23:52:42.287Z,25.60
2023-03-06T23:55:46.351Z,25.35
2023-03-06T23:58:48.341Z,22.88
